createdAt,value
2018-05-13T00:00:05.083Z,64.31
2018-05-13T00:00:42.597Z,64.12
2018-05-13T00:01:17.787Z,64.40
2018-05-13T00:01:53.353Z,63.60
2018-05-13T00:02:28.863Z,64.18
2018-05-13T00:03:04.380Z,64.02
2018-05-13T00:03:39.815Z,64.09
2018-05-13T00:04:15.211Z,64.09
2018-05-13T00:04:50.869Z,64.31
2018-05-13T00:05:26.303Z,63.99
2018-05-13T00:06:01.694Z,64.56
2018-05-13T00:06:37.062Z,64.89
2018-05-13T00:07:12.488Z,64.40
2018-05-13T00:07:48.025Z,64.31
2018-05-13T00:08:23.580Z,64.22
2018-05-13T00:08:59.140Z,64.37
2018-05-13T00:09:34.677Z,64.79
2018-05-13T00:10:12.273Z,64.31
2018-05-13T00:10:47.707Z,64.47
2018-05-13T00:11:23.024Z,63.79
2018-05-13T00:11:58.275Z,63.89
2018-05-13T00:12:33.987Z,64.09
2018-05-13T00:13:09.504Z,64.18
2018-05-13T00:13:45.028Z,64.09
2018-05-13T00:14:20.278Z,63.60
2018-05-13T00:14:55.579Z,63.99
2018-05-13T00:15:31.009Z,63.60
2018-05-13T00:16:06.108Z,63.12
2018-05-13T00:16:41.126Z,63.41
2018-05-13T00:17:16.242Z,63.02
2018-05-13T00:17:51.756Z,62.93
2018-05-13T00:18:26.902Z,62.55
2018-05-13T00:19:02.234Z,62.93
2018-05-13T00:19:37.882Z,62.55
2018-05-13T00:20:13.339Z,62.45
2018-05-13T00:20:48.806Z,62.07
2018-05-13T00:21:24.287Z,62.26
2018-05-13T00:21:59.843Z,62.07
2018-05-13T00:22:35.477Z,62.16
2018-05-13T00:23:10.794Z,62.16
2018-05-13T00:23:46.159Z,62.07
2018-05-13T00:24:21.328Z,62.16
2018-05-13T00:24:56.987Z,62.45
2018-05-13T00:25:32.691Z,62.45
2018-05-13T00:26:07.917Z,62.07
2018-05-13T00:26:43.717Z,62.26
2018-05-13T00:27:19.158Z,61.49
2018-05-13T00:27:55.057Z,61.97
2018-05-13T00:28:30.715Z,61.78
2018-05-13T00:29:06.135Z,62.16
2018-05-13T00:29:41.339Z,61.97
2018-05-13T00:30:16.635Z,61.97
2018-05-13T00:30:52.011Z,61.97
2018-05-13T00:31:27.236Z,61.30
2018-05-13T00:32:02.745Z,61.20
2018-05-13T00:32:38.208Z,61.49
2018-05-13T00:33:13.699Z,62.45
2018-05-13T00:33:49.216Z,62.07
2018-05-13T00:34:24.646Z,61.49
2018-05-13T00:35:00.145Z,61.87
2018-05-13T00:35:35.764Z,61.49
2018-05-13T00:36:11.058Z,62.07
2018-05-13T00:36:46.618Z,62.07
2018-05-13T00:37:21.848Z,61.97
2018-05-13T00:37:57.187Z,61.58
2018-05-13T00:38:32.732Z,61.58
2018-05-13T00:39:08.244Z,61.30
2018-05-13T00:39:43.709Z,61.78
2018-05-13T00:40:19.186Z,61.68
2018-05-13T00:40:54.200Z,61.20
2018-05-13T00:41:29.364Z,61.78
2018-05-13T00:42:04.697Z,61.58
2018-05-13T00:42:40.108Z,61.78
2018-05-13T00:43:15.907Z,61.30
2018-05-13T00:43:51.118Z,61.68
2018-05-13T00:44:26.275Z,61.68
2018-05-13T00:45:01.934Z,61.30
2018-05-13T00:45:37.449Z,60.82
2018-05-13T00:46:12.857Z,61.30
2018-05-13T00:46:48.288Z,61.30
2018-05-13T00:47:23.592Z,61.49
2018-05-13T00:47:58.876Z,61.49
2018-05-13T00:48:34.383Z,61.11
2018-05-13T00:49:09.596Z,61.20
2018-05-13T00:49:45.277Z,61.01
2018-05-13T00:50:20.814Z,61.30
2018-05-13T00:50:55.981Z,61.01
2018-05-13T00:51:31.195Z,61.78
2018-05-13T00:52:06.287Z,61.40
2018-05-13T00:52:41.959Z,61.58
2018-05-13T00:53:17.017Z,61.30
2018-05-13T00:53:52.235Z,61.58
2018-05-13T00:54:27.535Z,61.58
2018-05-13T00:55:02.851Z,62.07
2018-05-13T00:55:38.346Z,61.49
2018-05-13T00:56:13.735Z,61.78
2018-05-13T00:56:49.321Z,61.78
2018-05-13T00:57:24.718Z,61.20
2018-05-13T00:58:00.395Z,61.68
2018-05-13T00:58:35.755Z,61.97
2018-05-13T00:59:11.201Z,61.58
2018-05-13T00:59:46.571Z,61.68
2018-05-13T01:00:22.002Z,61.78
2018-05-13T01:00:57.219Z,61.78
2018-05-13T01:01:32.629Z,61.78
2018-05-13T01:02:08.048Z,61.87
2018-05-13T01:02:43.588Z,61.58
2018-05-13T01:03:19.170Z,61.97
2018-05-13T01:03:54.546Z,62.07
2018-05-13T01:04:30.105Z,62.07
2018-05-13T01:05:05.448Z,61.30
2018-05-13T01:05:40.656Z,61.40
2018-05-13T01:06:15.977Z,61.78
2018-05-13T01:06:51.440Z,61.68
2018-05-13T01:07:26.821Z,61.58
2018-05-13T01:08:02.054Z,61.49
2018-05-13T01:08:37.610Z,61.20
2018-05-13T01:09:12.813Z,61.49
2018-05-13T01:09:48.345Z,61.01
2018-05-13T01:10:23.767Z,60.91
2018-05-13T01:10:58.826Z,61.20
2018-05-13T01:11:34.407Z,61.20
2018-05-13T01:12:09.863Z,61.11
2018-05-13T01:12:47.800Z,61.01
2018-05-13T01:13:23.285Z,61.11
2018-05-13T01:13:58.506Z,61.01
2018-05-13T01:14:33.850Z,61.11
2018-05-13T01:15:09.286Z,61.20
2018-05-13T01:15:44.668Z,61.11
2018-05-13T01:16:20.129Z,61.30
2018-05-13T01:16:55.273Z,61.30
2018-05-13T01:17:30.573Z,61.30
2018-05-13T01:18:06.124Z,61.49
2018-05-13T01:18:41.480Z,61.30
2018-05-13T01:19:17.824Z,61.11
2018-05-13T01:19:53.235Z,61.68
2018-05-13T01:20:28.503Z,61.49
2018-05-13T01:21:03.877Z,61.49
2018-05-13T01:21:39.301Z,61.40
2018-05-13T01:22:14.901Z,61.40
2018-05-13T01:22:50.276Z,61.58
2018-05-13T01:23:25.803Z,61.11
2018-05-13T01:24:01.273Z,60.72
2018-05-13T01:24:36.499Z,61.49
2018-05-13T01:25:11.684Z,60.82
2018-05-13T01:25:46.859Z,60.63
2018-05-13T01:26:22.199Z,61.30
2018-05-13T01:26:57.887Z,61.11
2018-05-13T01:27:33.233Z,61.11
2018-05-13T01:28:08.726Z,61.20
2018-05-13T01:28:44.063Z,60.72
2018-05-13T01:29:19.170Z,60.82
2018-05-13T01:29:54.696Z,60.69
2018-05-13T01:30:29.608Z,60.53
2018-05-13T01:31:05.078Z,60.72
2018-05-13T01:31:40.503Z,61.11
2018-05-13T01:32:15.918Z,61.11
2018-05-13T01:32:51.382Z,61.30
2018-05-13T01:33:26.674Z,61.01
2018-05-13T01:34:02.113Z,61.01
2018-05-13T01:34:37.750Z,61.20
2018-05-13T01:35:13.347Z,60.91
2018-05-13T01:35:48.556Z,61.01
2018-05-13T01:36:23.953Z,60.91
2018-05-13T01:36:59.287Z,60.98
2018-05-13T01:37:34.513Z,61.20
2018-05-13T01:38:09.883Z,61.01
2018-05-13T01:38:45.190Z,60.72
2018-05-13T01:39:20.998Z,60.98
2018-05-13T01:39:56.426Z,61.11
2018-05-13T01:40:31.540Z,61.30
2018-05-13T01:41:07.087Z,61.20
2018-05-13T01:41:42.437Z,61.30
2018-05-13T01:42:17.720Z,61.30
2018-05-13T01:42:52.876Z,61.01
2018-05-13T01:43:28.094Z,61.27
2018-05-13T01:44:03.365Z,61.01
2018-05-13T01:44:38.781Z,60.82
2018-05-13T01:45:14.410Z,61.17
2018-05-13T01:45:49.637Z,60.98
2018-05-13T01:46:25.071Z,60.21
2018-05-13T01:47:00.994Z,60.69
2018-05-13T01:47:36.492Z,60.63
2018-05-13T01:48:12.148Z,60.69
2018-05-13T01:48:47.525Z,60.63
2018-05-13T01:49:22.845Z,60.88
2018-05-13T01:49:58.180Z,60.69
2018-05-13T01:50:33.786Z,60.78
2018-05-13T01:51:08.988Z,60.78
2018-05-13T01:51:44.349Z,60.78
2018-05-13T01:52:19.721Z,60.69
2018-05-13T01:52:54.927Z,60.78
2018-05-13T01:53:30.195Z,60.69
2018-05-13T01:54:05.374Z,60.60
2018-05-13T01:54:40.826Z,60.78
2018-05-13T01:55:16.230Z,60.40
2018-05-13T01:55:51.451Z,60.69
2018-05-13T01:56:26.561Z,60.21
2018-05-13T01:57:02.025Z,59.73
2018-05-13T01:57:37.461Z,60.31
2018-05-13T01:58:12.994Z,60.21
2018-05-13T01:58:48.357Z,59.83
2018-05-13T01:59:23.913Z,59.25
2018-05-13T01:59:59.642Z,59.34
2018-05-13T02:00:34.740Z,59.54
2018-05-13T02:01:09.731Z,59.44
2018-05-13T02:01:45.087Z,59.64
2018-05-13T02:02:20.408Z,59.64
2018-05-13T02:02:56.000Z,59.44
2018-05-13T02:03:31.242Z,59.54
2018-05-13T02:04:06.830Z,59.64
2018-05-13T02:04:42.082Z,59.34
2018-05-13T02:05:17.161Z,59.34
2018-05-13T02:05:53.151Z,59.25
2018-05-13T02:06:29.148Z,59.16
2018-05-13T02:07:04.449Z,58.87
2018-05-13T02:07:39.758Z,59.25
2018-05-13T02:08:15.311Z,58.96
2018-05-13T02:08:50.876Z,59.25
2018-05-13T02:09:26.126Z,59.54
2018-05-13T02:10:01.584Z,58.39
2018-05-13T02:10:37.227Z,58.87
2018-05-13T02:11:12.943Z,59.64
2018-05-13T02:11:48.050Z,59.34
2018-05-13T02:12:23.467Z,58.77
2018-05-13T02:12:58.622Z,58.67
2018-05-13T02:13:34.126Z,58.39
2018-05-13T02:14:09.593Z,58.67
2018-05-13T02:14:44.852Z,58.77
2018-05-13T02:15:19.941Z,58.67
2018-05-13T02:15:55.327Z,57.81
2018-05-13T02:16:30.832Z,58.39
2018-05-13T02:17:06.347Z,58.67
2018-05-13T02:17:41.626Z,58.67
2018-05-13T02:18:16.952Z,58.39
2018-05-13T02:18:52.316Z,57.81
2018-05-13T02:19:27.736Z,57.62
2018-05-13T02:20:03.155Z,58.00
2018-05-13T02:20:38.302Z,58.00
2018-05-13T02:21:13.645Z,58.67
2018-05-13T02:21:49.112Z,58.67
2018-05-13T02:22:24.954Z,58.48
2018-05-13T02:23:00.414Z,58.77
2018-05-13T02:23:35.529Z,58.39
2018-05-13T02:24:10.836Z,58.87
2018-05-13T02:24:46.258Z,58.58
2018-05-13T02:25:21.531Z,58.10
2018-05-13T02:25:56.911Z,58.58
2018-05-13T02:26:32.276Z,58.87
2018-05-13T02:27:07.940Z,58.29
2018-05-13T02:27:43.574Z,58.77
2018-05-13T02:28:18.853Z,58.10
2018-05-13T02:28:54.443Z,57.81
2018-05-13T02:29:30.150Z,57.81
2018-05-13T02:30:05.434Z,58.10
2018-05-13T02:30:40.978Z,58.29
2018-05-13T02:31:16.153Z,58.29
2018-05-13T02:31:51.523Z,58.20
2018-05-13T02:32:26.995Z,57.90
2018-05-13T02:33:02.323Z,57.90
2018-05-13T02:33:37.762Z,57.81
2018-05-13T02:34:13.236Z,58.29
2018-05-13T02:34:48.777Z,57.90
2018-05-13T02:35:24.045Z,57.90
2018-05-13T02:35:59.306Z,58.10
2018-05-13T02:36:34.653Z,58.00
2018-05-13T02:37:09.839Z,57.81
2018-05-13T02:37:45.030Z,57.90
2018-05-13T02:38:20.280Z,57.52
2018-05-13T02:38:55.713Z,57.81
2018-05-13T02:39:31.354Z,57.43
2018-05-13T02:40:06.545Z,57.11
2018-05-13T02:40:42.212Z,57.43
2018-05-13T02:41:17.772Z,58.00
2018-05-13T02:41:53.142Z,57.90
2018-05-13T02:42:28.499Z,58.00
2018-05-13T02:43:03.719Z,58.00
2018-05-13T02:43:39.090Z,57.52
2018-05-13T02:44:14.325Z,57.23
2018-05-13T02:44:49.653Z,57.33
2018-05-13T02:45:25.078Z,58.00
2018-05-13T02:46:00.158Z,57.52
2018-05-13T02:46:35.506Z,57.90
2018-05-13T02:47:10.915Z,57.33
2018-05-13T02:47:46.147Z,57.62
2018-05-13T02:48:21.587Z,57.50
2018-05-13T02:48:56.908Z,57.71
2018-05-13T02:49:32.325Z,57.33
2018-05-13T02:50:07.512Z,57.33
2018-05-13T02:50:43.028Z,57.33
2018-05-13T02:51:18.314Z,57.90
2018-05-13T02:51:53.760Z,57.33
2018-05-13T02:52:29.073Z,57.43
2018-05-13T02:53:04.520Z,58.00
2018-05-13T02:53:39.632Z,57.52
2018-05-13T02:54:15.174Z,57.90
2018-05-13T02:54:50.482Z,57.81
2018-05-13T02:55:26.029Z,57.81
2018-05-13T02:56:01.224Z,58.10
2018-05-13T02:56:36.857Z,57.71
2018-05-13T02:57:12.077Z,58.00
2018-05-13T02:57:47.561Z,57.90
2018-05-13T02:58:23.162Z,57.81
2018-05-13T02:58:58.402Z,58.39
2018-05-13T02:59:33.775Z,58.67
2018-05-13T03:00:09.333Z,58.48
2018-05-13T03:00:44.762Z,59.44
2018-05-13T03:01:20.348Z,59.16
2018-05-13T03:01:55.697Z,58.48
2018-05-13T03:02:30.822Z,59.25
2018-05-13T03:03:06.265Z,59.25
2018-05-13T03:03:41.595Z,59.06
2018-05-13T03:04:16.994Z,58.67
2018-05-13T03:04:52.332Z,58.77
2018-05-13T03:05:27.636Z,58.67
2018-05-13T03:06:02.908Z,59.06
2018-05-13T03:06:38.077Z,58.00
2018-05-13T03:07:13.442Z,56.46
2018-05-13T03:07:48.989Z,56.37
2018-05-13T03:08:24.599Z,55.73
2018-05-13T03:09:00.040Z,53.78
2018-05-13T03:09:35.362Z,50.70
2018-05-13T03:10:10.689Z,46.00
2018-05-13T03:10:46.019Z,40.33
2018-05-13T03:11:21.366Z,32.54
2018-05-13T03:11:56.754Z,31.00
2018-05-13T03:12:32.216Z,28.99
2018-05-13T03:13:07.609Z,28.50
2018-05-13T03:13:43.150Z,28.12
2018-05-13T03:14:18.481Z,25.82
2018-05-13T03:14:53.867Z,25.62
2018-05-13T03:15:29.238Z,24.95
2018-05-13T03:16:04.693Z,23.71
2018-05-13T03:16:40.013Z,21.30
2018-05-13T03:17:15.471Z,20.44
2018-05-13T03:17:50.719Z,20.43
2018-05-13T03:18:26.326Z,20.34
2018-05-13T03:19:01.700Z,19.38
2018-05-13T03:19:39.015Z,19.47
2018-05-13T03:20:15.080Z,18.81
2018-05-13T03:20:50.457Z,17.36
2018-05-13T03:21:25.597Z,16.60
2018-05-13T03:22:00.940Z,18.99
2018-05-13T03:22:36.047Z,19.38
2018-05-13T03:23:11.391Z,18.99
2018-05-13T03:23:47.026Z,18.61
2018-05-13T03:24:22.323Z,19.28
2018-05-13T03:24:57.662Z,19.47
2018-05-13T03:25:32.951Z,19.28
2018-05-13T03:26:08.243Z,18.51
2018-05-13T03:26:43.755Z,18.61
2018-05-13T03:27:19.308Z,19.67
2018-05-13T03:27:54.877Z,19.47
2018-05-13T03:28:30.164Z,19.85
2018-05-13T03:29:05.393Z,20.62
2018-05-13T03:29:40.501Z,20.53
2018-05-13T03:30:16.095Z,20.24
2018-05-13T03:30:51.256Z,20.14
2018-05-13T03:31:26.593Z,18.71
2018-05-13T03:32:01.977Z,18.61
2018-05-13T03:32:37.363Z,18.23
2018-05-13T03:33:12.756Z,17.65
2018-05-13T03:33:48.040Z,18.99
2018-05-13T03:34:23.393Z,18.61
2018-05-13T03:34:58.880Z,20.24
2018-05-13T03:35:34.247Z,20.91
2018-05-13T03:36:09.464Z,21.39
2018-05-13T03:36:44.707Z,20.24
2018-05-13T03:37:20.036Z,19.18
2018-05-13T03:37:55.492Z,18.71
2018-05-13T03:38:30.899Z,18.51
2018-05-13T03:39:06.116Z,18.13
2018-05-13T03:39:41.372Z,18.04
2018-05-13T03:40:16.679Z,18.13
2018-05-13T03:40:52.240Z,18.23
2018-05-13T03:41:27.602Z,17.65
2018-05-13T03:42:02.934Z,17.36
2018-05-13T03:42:38.205Z,16.50
2018-05-13T03:43:13.570Z,16.40
2018-05-13T03:43:49.047Z,17.17
2018-05-13T03:44:24.288Z,16.60
2018-05-13T03:44:59.730Z,16.69
2018-05-13T03:45:35.373Z,16.50
2018-05-13T03:46:10.917Z,16.31
2018-05-13T03:46:46.373Z,16.60
2018-05-13T03:47:22.051Z,16.11
2018-05-13T03:47:57.446Z,15.36
2018-05-13T03:48:32.885Z,14.49
2018-05-13T03:49:08.377Z,14.58
2018-05-13T03:49:44.070Z,14.59
2018-05-13T03:50:19.337Z,15.16
2018-05-13T03:50:54.604Z,15.16
2018-05-13T03:51:30.370Z,14.29
2018-05-13T03:52:05.681Z,14.39
2018-05-13T03:52:41.102Z,13.63
2018-05-13T03:53:16.646Z,13.05
2018-05-13T03:53:51.835Z,11.42
2018-05-13T03:54:27.204Z,11.23
2018-05-13T03:55:02.673Z,10.55
2018-05-13T03:55:37.996Z,10.55
2018-05-13T03:56:13.511Z,11.13
2018-05-13T03:56:48.887Z,11.42
2018-05-13T03:57:24.347Z,12.09
2018-05-13T03:57:59.837Z,11.61
2018-05-13T03:58:35.202Z,12.57
2018-05-13T03:59:10.559Z,12.66
2018-05-13T03:59:46.123Z,12.29
2018-05-13T04:00:21.575Z,12.66
2018-05-13T04:00:56.909Z,12.19
2018-05-13T04:01:32.120Z,13.63
2018-05-13T04:02:07.353Z,15.64
2018-05-13T04:02:44.522Z,15.55
2018-05-13T04:03:20.107Z,16.41
2018-05-13T04:03:55.283Z,17.46
2018-05-13T04:04:30.650Z,17.18
2018-05-13T04:05:05.814Z,17.65
2018-05-13T04:05:41.275Z,16.31
2018-05-13T04:06:16.827Z,14.87
2018-05-13T04:06:52.220Z,12.86
2018-05-13T04:07:27.703Z,12.18
2018-05-13T04:08:03.090Z,12.96
2018-05-13T04:08:38.469Z,11.70
2018-05-13T04:09:13.719Z,12.28
2018-05-13T04:09:48.952Z,11.60
2018-05-13T04:10:24.140Z,10.46
2018-05-13T04:10:59.304Z,10.26
2018-05-13T04:11:35.166Z,9.40
2018-05-13T04:12:10.694Z,9.11
2018-05-13T04:12:46.012Z,8.63
2018-05-13T04:13:21.456Z,10.07
2018-05-13T04:13:56.882Z,9.50
2018-05-13T04:14:32.185Z,9.40
2018-05-13T04:15:07.749Z,9.11
2018-05-13T04:15:42.989Z,9.11
2018-05-13T04:16:18.233Z,8.92
2018-05-13T04:16:53.723Z,7.77
2018-05-13T04:17:29.501Z,7.39
2018-05-13T04:18:05.114Z,8.53
2018-05-13T04:18:40.570Z,10.74
2018-05-13T04:19:15.933Z,9.40
2018-05-13T04:19:51.271Z,8.92
2018-05-13T04:20:26.777Z,10.55
2018-05-13T04:21:02.400Z,9.50
2018-05-13T04:21:37.791Z,8.73
2018-05-13T04:22:13.082Z,7.96
2018-05-13T04:22:48.479Z,7.57
2018-05-13T04:23:24.034Z,7.10
2018-05-13T04:23:59.461Z,8.34
2018-05-13T04:24:34.747Z,9.21
2018-05-13T04:25:10.182Z,11.03
2018-05-13T04:25:45.499Z,9.40
2018-05-13T04:26:20.911Z,8.63
2018-05-13T04:26:56.281Z,8.44
2018-05-13T04:27:31.432Z,7.86
2018-05-13T04:28:07.003Z,7.86
2018-05-13T04:28:42.355Z,7.86
2018-05-13T04:29:18.114Z,7.48
2018-05-13T04:29:53.456Z,7.10
2018-05-13T04:30:28.859Z,6.52
2018-05-13T04:31:04.121Z,6.71
2018-05-13T04:31:39.494Z,6.81
2018-05-13T04:32:14.991Z,6.43
2018-05-13T04:32:50.307Z,6.52
2018-05-13T04:33:25.687Z,6.33
2018-05-13T04:34:01.414Z,6.43
2018-05-13T04:34:37.119Z,6.14
2018-05-13T04:35:12.345Z,5.27
2018-05-13T04:35:47.625Z,3.36
2018-05-13T04:36:22.790Z,1.63
2018-05-13T04:36:58.112Z,0.00
2018-05-13T04:37:33.693Z,0.00
2018-05-13T04:38:08.737Z,0.00
2018-05-13T04:38:44.005Z,0.00
2018-05-13T04:39:19.357Z,0.00
2018-05-13T04:39:54.689Z,0.00
2018-05-13T04:40:30.041Z,0.00
2018-05-13T04:41:05.235Z,0.00
2018-05-13T04:41:40.821Z,0.00
2018-05-13T04:42:16.197Z,0.00
2018-05-13T04:42:51.684Z,0.00
2018-05-13T04:43:27.060Z,0.00
2018-05-13T04:44:02.505Z,0.00
2018-05-13T04:44:37.929Z,0.00
2018-05-13T04:45:13.562Z,0.00
2018-05-13T04:45:48.974Z,0.00
2018-05-13T04:46:24.195Z,0.00
2018-05-13T04:46:59.471Z,0.00
2018-05-13T04:47:35.922Z,0.00
2018-05-13T04:48:11.163Z,0.00
2018-05-13T04:48:46.745Z,0.00
2018-05-13T04:49:22.133Z,0.00
2018-05-13T04:49:57.627Z,0.00
2018-05-13T04:50:32.991Z,0.00
2018-05-13T04:51:08.451Z,0.00
2018-05-13T04:51:43.931Z,0.00
2018-05-13T04:52:19.328Z,0.00
2018-05-13T04:52:54.764Z,0.00
2018-05-13T04:53:29.995Z,0.00
2018-05-13T04:54:05.419Z,0.00
2018-05-13T04:54:41.081Z,0.00
2018-05-13T04:55:16.969Z,0.00
2018-05-13T04:55:52.525Z,0.00
2018-05-13T04:56:27.942Z,0.00
2018-05-13T04:57:03.343Z,0.00
2018-05-13T04:57:38.890Z,0.00
2018-05-13T04:58:14.349Z,0.00
2018-05-13T04:58:49.626Z,0.00
2018-05-13T04:59:25.205Z,0.00
2018-05-13T05:00:00.742Z,0.00
2018-05-13T05:00:36.676Z,0.00
2018-05-13T05:01:12.242Z,0.00
2018-05-13T05:01:47.483Z,0.00
2018-05-13T05:02:22.709Z,0.00
2018-05-13T05:02:58.225Z,0.00
2018-05-13T05:03:34.379Z,0.00
2018-05-13T05:04:10.755Z,0.00
2018-05-13T05:04:46.236Z,0.00
2018-05-13T05:05:21.607Z,0.00
2018-05-13T05:05:57.191Z,0.00
2018-05-13T05:06:33.685Z,0.00
2018-05-13T05:07:09.062Z,0.00
2018-05-13T05:07:44.430Z,0.00
2018-05-13T05:08:20.022Z,0.00
2018-05-13T05:08:55.470Z,0.00
2018-05-13T05:09:30.834Z,0.00
2018-05-13T05:10:06.280Z,0.00
2018-05-13T05:10:41.601Z,0.00
2018-05-13T05:11:17.067Z,0.00
2018-05-13T05:11:52.325Z,0.00
2018-05-13T05:12:27.451Z,0.00
2018-05-13T05:13:02.792Z,0.00
2018-05-13T05:13:38.320Z,0.00
2018-05-13T05:14:13.682Z,0.00
2018-05-13T05:14:49.318Z,0.00
2018-05-13T05:15:24.611Z,0.00
2018-05-13T05:16:00.151Z,0.00
2018-05-13T05:16:35.596Z,0.00
2018-05-13T05:17:10.909Z,0.00
2018-05-13T05:17:46.199Z,0.00
2018-05-13T05:18:22.275Z,0.00
2018-05-13T05:18:57.728Z,0.00
2018-05-13T05:19:33.001Z,0.00
2018-05-13T05:20:08.628Z,0.00
2018-05-13T05:20:44.127Z,0.00
2018-05-13T05:21:19.590Z,0.00
2018-05-13T05:21:55.373Z,0.00
2018-05-13T05:22:30.592Z,0.00
2018-05-13T05:23:06.041Z,0.00
2018-05-13T05:23:41.293Z,0.00
2018-05-13T05:24:17.104Z,0.00
2018-05-13T05:24:52.370Z,0.00
2018-05-13T05:25:28.031Z,0.00
2018-05-13T05:26:03.510Z,0.00
2018-05-13T05:26:38.758Z,0.00
2018-05-13T05:27:14.169Z,0.00
2018-05-13T05:27:49.435Z,0.00
2018-05-13T05:28:25.015Z,0.00
2018-05-13T05:29:00.245Z,0.00
2018-05-13T05:29:35.581Z,0.00
2018-05-13T05:30:10.963Z,0.00
2018-05-13T05:30:46.213Z,0.00
2018-05-13T05:31:21.784Z,0.00
2018-05-13T05:31:57.434Z,0.00
2018-05-13T05:32:32.914Z,0.00
2018-05-13T05:33:08.569Z,0.00
2018-05-13T05:33:44.013Z,0.00
2018-05-13T05:34:19.634Z,0.00
2018-05-13T05:34:55.365Z,0.00
2018-05-13T05:35:30.941Z,0.00
2018-05-13T05:36:06.761Z,0.00
2018-05-13T05:36:42.214Z,0.00
2018-05-13T05:37:17.587Z,0.00
2018-05-13T05:37:53.046Z,0.00
2018-05-13T05:38:28.612Z,0.00
2018-05-13T05:39:04.066Z,0.00
2018-05-13T05:39:39.471Z,0.00
2018-05-13T05:40:15.005Z,0.00
2018-05-13T05:40:50.593Z,0.00
2018-05-13T05:41:26.113Z,0.00
2018-05-13T05:42:01.723Z,0.00
2018-05-13T05:42:37.150Z,0.00
2018-05-13T05:43:12.437Z,0.00
2018-05-13T05:43:48.017Z,0.00
2018-05-13T05:44:23.790Z,0.00
2018-05-13T05:44:59.531Z,0.00
2018-05-13T05:45:35.111Z,0.00
2018-05-13T05:46:10.438Z,0.00
2018-05-13T05:46:45.591Z,0.00
2018-05-13T05:47:21.351Z,0.00
2018-05-13T05:47:56.794Z,0.00
2018-05-13T05:48:31.916Z,0.00
2018-05-13T05:49:07.553Z,0.00
2018-05-13T05:49:43.138Z,0.00
2018-05-13T05:50:19.262Z,0.00
2018-05-13T05:50:54.527Z,0.00
2018-05-13T05:51:30.091Z,0.00
2018-05-13T05:52:05.462Z,0.00
2018-05-13T05:52:40.903Z,0.00
2018-05-13T05:53:16.276Z,0.00
2018-05-13T05:53:51.480Z,0.00
2018-05-13T05:54:27.248Z,0.00
2018-05-13T05:55:02.848Z,0.00
2018-05-13T05:55:38.165Z,0.00
2018-05-13T05:56:13.496Z,0.00
2018-05-13T05:56:49.300Z,0.00
2018-05-13T05:57:25.267Z,0.00
2018-05-13T05:58:00.758Z,0.00
2018-05-13T05:58:36.273Z,0.00
2018-05-13T05:59:11.354Z,0.00
2018-05-13T05:59:46.849Z,0.00
2018-05-13T06:00:22.383Z,0.00
2018-05-13T06:00:57.973Z,0.00
2018-05-13T06:01:33.273Z,0.00
2018-05-13T06:02:08.572Z,0.00
2018-05-13T06:02:43.955Z,0.00
2018-05-13T06:03:19.311Z,0.00
2018-05-13T06:03:54.622Z,0.00
2018-05-13T06:04:29.947Z,0.00
2018-05-13T06:05:05.055Z,0.00
2018-05-13T06:05:40.776Z,0.00
2018-05-13T06:06:16.910Z,0.00
2018-05-13T06:06:52.412Z,0.00
2018-05-13T06:07:27.658Z,0.00
2018-05-13T06:08:02.844Z,0.00
2018-05-13T06:08:38.188Z,0.00
2018-05-13T06:09:13.621Z,0.00
2018-05-13T06:09:49.214Z,0.00
2018-05-13T06:10:24.660Z,0.00
2018-05-13T06:11:00.005Z,0.00
2018-05-13T06:11:35.540Z,0.00
2018-05-13T06:12:10.848Z,0.00
2018-05-13T06:12:46.327Z,0.00
2018-05-13T06:13:21.617Z,0.00
2018-05-13T06:13:57.284Z,0.00
2018-05-13T06:14:32.756Z,0.00
2018-05-13T06:15:08.113Z,0.00
2018-05-13T06:15:43.446Z,0.00
2018-05-13T06:16:19.144Z,0.00
2018-05-13T06:16:54.682Z,0.00
2018-05-13T06:17:30.206Z,0.00
2018-05-13T06:18:05.755Z,0.00
2018-05-13T06:18:41.032Z,0.00
2018-05-13T06:19:16.247Z,0.00
2018-05-13T06:19:51.664Z,0.00
2018-05-13T06:20:26.700Z,0.00
2018-05-13T06:21:02.017Z,0.00
2018-05-13T06:21:37.348Z,0.00
2018-05-13T06:22:12.474Z,0.00
2018-05-13T06:22:48.271Z,0.00
2018-05-13T06:23:23.693Z,0.00
2018-05-13T06:23:59.056Z,0.00
2018-05-13T06:24:34.522Z,0.00
2018-05-13T06:25:09.740Z,0.00
2018-05-13T06:25:45.402Z,0.00
2018-05-13T06:26:20.894Z,0.00
2018-05-13T06:26:56.451Z,0.00
2018-05-13T06:27:31.967Z,0.00
2018-05-13T06:28:07.391Z,0.00
2018-05-13T06:28:43.023Z,0.00
2018-05-13T06:29:18.643Z,0.00
2018-05-13T06:29:54.790Z,0.00
2018-05-13T06:30:30.165Z,0.00
2018-05-13T06:31:06.779Z,0.00
2018-05-13T06:31:42.049Z,0.00
2018-05-13T06:32:17.785Z,0.00
2018-05-13T06:32:53.232Z,0.00
2018-05-13T06:33:28.584Z,0.00
2018-05-13T06:34:03.882Z,1.15
2018-05-13T06:34:39.615Z,9.91
2018-05-13T06:35:14.959Z,7.51
2018-05-13T06:35:50.274Z,8.37
2018-05-13T06:36:25.882Z,9.23
2018-05-13T06:37:01.291Z,0.00
2018-05-13T06:37:36.863Z,2.40
2018-05-13T06:38:12.349Z,6.35
2018-05-13T06:38:47.564Z,0.87
2018-05-13T06:39:22.983Z,0.00
2018-05-13T06:39:58.191Z,0.00
2018-05-13T06:40:33.617Z,0.00
2018-05-13T06:41:08.780Z,2.60
2018-05-13T06:41:44.245Z,7.61
2018-05-13T06:42:19.904Z,20.33
2018-05-13T06:42:55.361Z,7.90
2018-05-13T06:43:30.967Z,5.49
2018-05-13T06:44:06.392Z,7.61
2018-05-13T06:44:42.133Z,16.19
2018-05-13T06:45:17.542Z,22.84
2018-05-13T06:45:52.727Z,18.99
2018-05-13T06:46:28.336Z,29.39
2018-05-13T06:47:03.884Z,27.75
2018-05-13T06:47:39.771Z,22.64
2018-05-13T06:48:15.631Z,22.26
2018-05-13T06:48:51.014Z,25.15
2018-05-13T06:49:26.542Z,29.68
2018-05-13T06:50:02.163Z,32.76
2018-05-13T06:50:37.937Z,36.73
2018-05-13T06:51:13.363Z,35.19
2018-05-13T06:51:48.751Z,29.98
2018-05-13T06:52:24.265Z,16.97
2018-05-13T06:52:59.678Z,21.03
2018-05-13T06:53:35.169Z,24.79
2018-05-13T06:54:10.632Z,41.07
2018-05-13T06:54:45.998Z,45.70
2018-05-13T06:55:21.643Z,43.27
2018-05-13T06:55:57.036Z,41.72
2018-05-13T06:56:32.422Z,40.09
2018-05-13T06:57:07.578Z,39.79
2018-05-13T06:57:43.150Z,37.19
2018-05-13T06:58:18.861Z,37.56
2018-05-13T06:58:54.433Z,39.89
2018-05-13T06:59:29.821Z,28.23
2018-05-13T07:00:05.272Z,35.08
2018-05-13T07:00:40.939Z,40.95
2018-05-13T07:01:16.396Z,35.94
2018-05-13T07:01:51.922Z,33.92
2018-05-13T07:02:27.128Z,33.53
2018-05-13T07:03:02.474Z,26.11
2018-05-13T07:03:38.141Z,23.03
2018-05-13T07:04:13.497Z,20.05
2018-05-13T07:04:49.129Z,20.43
2018-05-13T07:05:24.571Z,22.08
2018-05-13T07:05:59.889Z,21.80
2018-05-13T07:06:35.398Z,19.10
2018-05-13T07:07:10.698Z,19.10
2018-05-13T07:07:46.371Z,17.27
2018-05-13T07:08:21.745Z,25.28
2018-05-13T07:08:57.114Z,40.44
2018-05-13T07:09:32.338Z,40.24
2018-05-13T07:10:07.536Z,41.98
2018-05-13T07:10:43.614Z,30.98
2018-05-13T07:11:18.988Z,46.34
2018-05-13T07:11:55.354Z,49.60
2018-05-13T07:12:30.651Z,40.24
2018-05-13T07:13:06.210Z,43.84
2018-05-13T07:13:41.757Z,51.25
2018-05-13T07:14:17.186Z,48.44
2018-05-13T07:14:52.558Z,50.38
2018-05-13T07:15:28.158Z,48.06
2018-05-13T07:16:03.521Z,48.35
2018-05-13T07:16:39.174Z,49.32
2018-05-13T07:17:14.515Z,50.67
2018-05-13T07:17:49.882Z,46.25
2018-05-13T07:18:25.475Z,49.24
2018-05-13T07:19:00.884Z,58.77
2018-05-13T07:19:36.634Z,56.26
2018-05-13T07:20:12.273Z,56.36
2018-05-13T07:20:47.893Z,51.82
2018-05-13T07:21:23.336Z,53.08
2018-05-13T07:21:58.916Z,57.64
2018-05-13T07:22:34.590Z,58.32
2018-05-13T07:23:10.283Z,54.07
2018-05-13T07:23:45.889Z,61.51
2018-05-13T07:24:21.457Z,59.48
2018-05-13T07:24:56.850Z,60.54
2018-05-13T07:25:32.315Z,59.67
2018-05-13T07:26:07.836Z,58.03
2018-05-13T07:26:43.209Z,58.70
2018-05-13T07:27:18.790Z,59.12
2018-05-13T07:27:53.994Z,58.83
2018-05-13T07:28:29.337Z,60.35
2018-05-13T07:29:04.642Z,59.67
2018-05-13T07:29:40.220Z,58.45
2018-05-13T07:30:15.753Z,57.77
2018-05-13T07:30:51.018Z,60.99
2018-05-13T07:31:26.390Z,62.24
2018-05-13T07:32:02.072Z,62.63
2018-05-13T07:32:37.442Z,62.53
2018-05-13T07:33:12.772Z,62.05
2018-05-13T07:33:48.072Z,54.13
2018-05-13T07:34:23.595Z,62.15
2018-05-13T07:34:58.765Z,59.95
2018-05-13T07:35:34.298Z,57.54
2018-05-13T07:36:09.441Z,50.79
2018-05-13T07:36:44.946Z,62.30
2018-05-13T07:37:20.533Z,64.27
2018-05-13T07:37:55.614Z,66.27
2018-05-13T07:38:31.206Z,66.08
2018-05-13T07:39:06.562Z,65.79
2018-05-13T07:39:42.101Z,65.79
2018-05-13T07:40:17.551Z,66.56
2018-05-13T07:40:53.161Z,66.37